Sorrento, Florida
Current Conditions -  °F | °C
As of 8:53 AM on Thursday 18 Dec 2014 (Local Time) from KLEE Reporting Station
Clear Clear  
Wind Chill: 52°   Ceiling: Unl
Heat Index: 52°   Visibility: 10mi
Dew Point: 47°   Wind: 3mph
Humidity: 83%   Direction: 340°NNW
Pressure: 30.2"   Gusts: NA
Location:  28.81°N, 81.56°W
Report Text: KLEE 181353Z 34003KT 10SM CLR 11/08 A3020 RMK AO2 SLP225 T01110083
Loading
Personal Weather Stations






























Interactive Weather Map New forecast layout! Learn more

10-Day Weather Forecast

Advertisements
Track Severe Weather on mobile